Aérodrome :
LOGIN :

S'inscrire | Disclaimer

   EN    FR    IT 

 










Légende :    VFR   VFR Marginal   IFR   IFR Intensif   IFR Très Intensif
Visi : 
Plafond : 
>= 8 km
>= 3000ft
5 à 8 km
1000 à 3000 ft
1500m à 5 km
500 à 1000 ft
800 à 1500m
200 à 500 ft
< 800m
< 200 ft
Symboles :   Orages  Brouillard  Fortes neiges  Fortes précipitations  Vent > 20 kt
SIGMETs :   Divers  Orages  Givrage  Turbulence  Onde Orograph.  Cendres Volcan.







- Altitude de l'aérodrome : 160 ft
- Code IATA : FMO


EDDG - Münster Osnabrück Int.

DERNIER METAR :
  • 261020Z 30009KT 240V340 CAVOK 28/19 Q1023 NOSIG

METARs EXPIRÉS :
  • 260950Z 29008KT 240V340 CAVOK 28/19 Q1023 NOSIG
  • 260920Z 27010KT 230V330 CAVOK 28/19 Q1023 NOSIG
  • 260850Z 28008KT 250V330 CAVOK 28/19 Q1023 NOSIG
  • 260820Z 28006KT 240V330 CAVOK 27/19 Q1023 NOSIG
  • 260750Z 28008KT 250V320 CAVOK 26/19 Q1022 NOSIG

TAF TAF EDDG
Valide du 26 à 06h jusqu'au 27 à 06h UTC


260500Z 2606/2706 26005KT CAVOK
BECMG 2606/2609 30010KT
BECMG 2618/2621 33005KT
PROB30
TEMPO 2702/2706 BKN012
Pas de NOTAMs connus pour ce terrain.



MET'MAP, la Météo Aéronautique d'un coup d'oeil ! - Copyright ORBIFLY Décembre 2007 - Disclaimer

ORBIFLY MET'MAP TEAM :

Programmation & Développement : Alexandra Zaïnal
Conception & Développement : Baudouin d'Aumeries
Co-Programmation & Développement : Marc-Olivier Méhu
Soutien technique & logistique : Manuel Goepfert

Contact : metmap@orbifly.com




SOURCES & CREDITS :

   NOAA